sensor_id;sensor_type;location;lat;lon;timestamp;P1;durP1;ratioP1;P2;durP2;ratioP2
37851;SDS011;23691;52.486;4.650;2023-05-10T00:01:57;19.98;;;13.05;;
37851;SDS011;23691;52.486;4.650;2023-05-10T00:04:25;19.45;;;13.07;;
37851;SDS011;23691;52.486;4.650;2023-05-10T00:06:52;22.33;;;12.50;;
37851;SDS011;23691;52.486;4.650;2023-05-10T00:09:18;22.52;;;13.38;;
37851;SDS011;23691;52.486;4.650;2023-05-10T00:11:43;23.25;;;14.18;;
37851;SDS011;23691;52.486;4.650;2023-05-10T00:14:09;22.25;;;14.30;;
37851;SDS011;23691;52.486;4.650;2023-05-10T00:16:34;22.02;;;15.35;;
37851;SDS011;23691;52.486;4.650;2023-05-10T00:19:00;21.85;;;14.45;;
37851;SDS011;23691;52.486;4.650;2023-05-10T00:21:25;25.40;;;15.00;;
37851;SDS011;23691;52.486;4.650;2023-05-10T00:23:50;23.73;;;15.50;;
37851;SDS011;23691;52.486;4.650;2023-05-10T00:26:16;22.35;;;15.27;;
37851;SDS011;23691;52.486;4.650;2023-05-10T00:28:41;24.25;;;14.10;;
37851;SDS011;23691;52.486;4.650;2023-05-10T00:31:07;22.80;;;14.52;;
37851;SDS011;23691;52.486;4.650;2023-05-10T00:33:32;25.75;;;15.63;;
37851;SDS011;23691;52.486;4.650;2023-05-10T00:35:57;24.30;;;16.17;;
37851;SDS011;23691;52.486;4.650;2023-05-10T00:38:23;25.77;;;16.45;;
37851;SDS011;23691;52.486;4.650;2023-05-10T00:40:48;25.00;;;16.55;;
37851;SDS011;23691;52.486;4.650;2023-05-10T00:43:14;23.63;;;14.10;;
37851;SDS011;23691;52.486;4.650;2023-05-10T00:45:39;21.90;;;13.60;;
37851;SDS011;23691;52.486;4.650;2023-05-10T00:48:05;23.85;;;14.15;;
37851;SDS011;23691;52.486;4.650;2023-05-10T00:50:31;23.38;;;14.57;;
37851;SDS011;23691;52.486;4.650;2023-05-10T00:52:58;23.83;;;13.95;;
37851;SDS011;23691;52.486;4.650;2023-05-10T00:55:25;23.17;;;15.80;;
37851;SDS011;23691;52.486;4.650;2023-05-10T00:57:51;22.05;;;13.00;;
37851;SDS011;23691;52.486;4.650;2023-05-10T01:00:17;27.40;;;15.07;;
37851;SDS011;23691;52.486;4.650;2023-05-10T01:02:46;25.73;;;15.40;;
37851;SDS011;23691;52.486;4.650;2023-05-10T01:05:12;27.95;;;15.48;;
37851;SDS011;23691;52.486;4.650;2023-05-10T01:07:38;28.67;;;14.35;;
37851;SDS011;23691;52.486;4.650;2023-05-10T01:10:07;30.05;;;15.93;;
37851;SDS011;23691;52.486;4.650;2023-05-10T01:12:34;33.60;;;14.70;;
37851;SDS011;23691;52.486;4.650;2023-05-10T01:15:02;31.13;;;14.18;;
37851;SDS011;23691;52.486;4.650;2023-05-10T01:17:30;34.50;;;14.18;;
37851;SDS011;23691;52.486;4.650;2023-05-10T01:19:56;25.60;;;12.25;;
37851;SDS011;23691;52.486;4.650;2023-05-10T01:25:06;29.23;;;13.18;;
37851;SDS011;23691;52.486;4.650;2023-05-10T01:27:53;33.42;;;13.55;;
37851;SDS011;23691;52.486;4.650;2023-05-10T01:30:47;29.25;;;12.75;;
37851;SDS011;23691;52.486;4.650;2023-05-10T01:33:33;25.10;;;12.43;;
37851;SDS011;23691;52.486;4.650;2023-05-10T01:36:13;30.27;;;12.23;;
37851;SDS011;23691;52.486;4.650;2023-05-10T01:41:25;35.47;;;14.70;;
37851;SDS011;23691;52.486;4.650;2023-05-10T01:46:35;36.92;;;16.08;;
37851;SDS011;23691;52.486;4.650;2023-05-10T01:49:12;37.72;;;16.55;;
37851;SDS011;23691;52.486;4.650;2023-05-10T01:51:46;29.63;;;13.18;;
37851;SDS011;23691;52.486;4.650;2023-05-10T01:54:17;37.30;;;13.48;;
37851;SDS011;23691;52.486;4.650;2023-05-10T01:56:45;35.10;;;14.60;;
37851;SDS011;23691;52.486;4.650;2023-05-10T01:59:16;31.00;;;14.20;;
37851;SDS011;23691;52.486;4.650;2023-05-10T02:01:44;34.97;;;13.45;;
37851;SDS011;23691;52.486;4.650;2023-05-10T02:04:11;30.63;;;11.82;;
37851;SDS011;23691;52.486;4.650;2023-05-10T02:06:41;32.33;;;11.27;;
37851;SDS011;23691;52.486;4.650;2023-05-10T02:09:07;23.13;;;9.23;;
37851;SDS011;23691;52.486;4.650;2023-05-10T02:14:02;23.55;;;9.02;;
37851;SDS011;23691;52.486;4.650;2023-05-10T02:16:30;20.77;;;9.15;;
37851;SDS011;23691;52.486;4.650;2023-05-10T02:18:56;23.52;;;8.98;;
37851;SDS011;23691;52.486;4.650;2023-05-10T02:21:24;17.27;;;8.27;;
37851;SDS011;23691;52.486;4.650;2023-05-10T02:23:54;19.35;;;8.30;;
37851;SDS011;23691;52.486;4.650;2023-05-10T02:26:22;19.60;;;8.40;;
37851;SDS011;23691;52.486;4.650;2023-05-10T02:28:50;17.77;;;8.13;;
37851;SDS011;23691;52.486;4.650;2023-05-10T02:31:16;17.52;;;8.57;;
37851;SDS011;23691;52.486;4.650;2023-05-10T02:33:43;20.00;;;8.48;;
37851;SDS011;23691;52.486;4.650;2023-05-10T02:36:10;20.58;;;9.13;;
37851;SDS011;23691;52.486;4.650;2023-05-10T02:38:37;20.65;;;9.00;;
37851;SDS011;23691;52.486;4.650;2023-05-10T02:41:04;18.65;;;9.10;;
37851;SDS011;23691;52.486;4.650;2023-05-10T02:43:33;21.38;;;8.88;;
37851;SDS011;23691;52.486;4.650;2023-05-10T02:45:59;18.92;;;9.13;;
37851;SDS011;23691;52.486;4.650;2023-05-10T02:48:24;20.63;;;10.13;;
37851;SDS011;23691;52.486;4.650;2023-05-10T02:50:53;18.52;;;9.85;;
37851;SDS011;23691;52.486;4.650;2023-05-10T02:53:22;19.15;;;9.43;;
37851;SDS011;23691;52.486;4.650;2023-05-10T02:55:55;20.55;;;9.48;;
37851;SDS011;23691;52.486;4.650;2023-05-10T02:58:23;19.67;;;9.52;;
37851;SDS011;23691;52.486;4.650;2023-05-10T03:00:49;21.05;;;9.30;;
37851;SDS011;23691;52.486;4.650;2023-05-10T03:03:14;16.52;;;8.95;;
37851;SDS011;23691;52.486;4.650;2023-05-10T03:05:39;15.70;;;8.90;;
37851;SDS011;23691;52.486;4.650;2023-05-10T03:08:05;17.35;;;9.85;;
37851;SDS011;23691;52.486;4.650;2023-05-10T03:10:31;19.70;;;10.30;;
37851;SDS011;23691;52.486;4.650;2023-05-10T03:18:15;18.50;;;10.05;;
37851;SDS011;23691;52.486;4.650;2023-05-10T03:21:12;19.55;;;10.13;;
37851;SDS011;23691;52.486;4.650;2023-05-10T03:23:51;16.65;;;8.82;;
37851;SDS011;23691;52.486;4.650;2023-05-10T03:26:25;18.13;;;9.98;;
37851;SDS011;23691;52.486;4.650;2023-05-10T03:28:53;20.02;;;9.95;;
37851;SDS011;23691;52.486;4.650;2023-05-10T03:31:19;20.17;;;10.02;;
37851;SDS011;23691;52.486;4.650;2023-05-10T03:33:46;17.60;;;9.57;;
37851;SDS011;23691;52.486;4.650;2023-05-10T03:36:12;19.02;;;9.38;;
37851;SDS011;23691;52.486;4.650;2023-05-10T03:38:37;18.58;;;9.18;;
37851;SDS011;23691;52.486;4.650;2023-05-10T03:41:05;17.23;;;9.43;;
37851;SDS011;23691;52.486;4.650;2023-05-10T03:43:33;20.25;;;10.45;;
37851;SDS011;23691;52.486;4.650;2023-05-10T03:46:01;17.80;;;9.68;;
37851;SDS011;23691;52.486;4.650;2023-05-10T03:48:27;19.67;;;10.15;;
37851;SDS011;23691;52.486;4.650;2023-05-10T03:50:52;20.23;;;10.52;;
37851;SDS011;23691;52.486;4.650;2023-05-10T03:53:17;18.17;;;10.88;;
37851;SDS011;23691;52.486;4.650;2023-05-10T03:55:45;18.88;;;9.90;;
37851;SDS011;23691;52.486;4.650;2023-05-10T03:58:11;19.20;;;10.43;;
37851;SDS011;23691;52.486;4.650;2023-05-10T04:00:36;18.65;;;10.65;;
37851;SDS011;23691;52.486;4.650;2023-05-10T04:03:02;20.05;;;10.48;;
37851;SDS011;23691;52.486;4.650;2023-05-10T04:05:28;17.65;;;10.20;;
37851;SDS011;23691;52.486;4.650;2023-05-10T04:07:53;18.85;;;9.90;;
37851;SDS011;23691;52.486;4.650;2023-05-10T04:10:19;17.90;;;10.07;;
37851;SDS011;23691;52.486;4.650;2023-05-10T04:12:45;18.63;;;10.57;;
37851;SDS011;23691;52.486;4.650;2023-05-10T04:15:11;18.05;;;10.75;;
37851;SDS011;23691;52.486;4.650;2023-05-10T04:17:36;18.10;;;11.02;;
37851;SDS011;23691;52.486;4.650;2023-05-10T04:20:02;18.95;;;10.75;;
37851;SDS011;23691;52.486;4.650;2023-05-10T04:22:28;20.60;;;11.20;;
37851;SDS011;23691;52.486;4.650;2023-05-10T04:24:56;20.85;;;11.75;;
37851;SDS011;23691;52.486;4.650;2023-05-10T04:27:22;20.95;;;11.90;;
37851;SDS011;23691;52.486;4.650;2023-05-10T04:29:48;19.30;;;12.20;;
37851;SDS011;23691;52.486;4.650;2023-05-10T04:32:13;20.65;;;12.40;;
37851;SDS011;23691;52.486;4.650;2023-05-10T04:34:38;19.17;;;11.98;;
37851;SDS011;23691;52.486;4.650;2023-05-10T04:37:04;20.02;;;12.25;;
37851;SDS011;23691;52.486;4.650;2023-05-10T04:39:29;18.65;;;11.50;;
37851;SDS011;23691;52.486;4.650;2023-05-10T04:41:55;21.08;;;11.68;;
37851;SDS011;23691;52.486;4.650;2023-05-10T04:44:20;19.23;;;12.13;;
37851;SDS011;23691;52.486;4.650;2023-05-10T04:46:45;20.83;;;12.65;;
37851;SDS011;23691;52.486;4.650;2023-05-10T04:49:11;18.45;;;11.60;;
37851;SDS011;23691;52.486;4.650;2023-05-10T04:51:36;19.10;;;11.43;;
37851;SDS011;23691;52.486;4.650;2023-05-10T04:54:02;19.73;;;11.55;;
37851;SDS011;23691;52.486;4.650;2023-05-10T04:56:27;20.42;;;11.52;;
37851;SDS011;23691;52.486;4.650;2023-05-10T04:58:53;19.20;;;11.15;;
37851;SDS011;23691;52.486;4.650;2023-05-10T05:01:18;19.17;;;11.65;;
37851;SDS011;23691;52.486;4.650;2023-05-10T05:03:43;19.10;;;11.48;;
37851;SDS011;23691;52.486;4.650;2023-05-10T05:06:09;17.88;;;11.20;;
37851;SDS011;23691;52.486;4.650;2023-05-10T05:08:34;20.15;;;11.55;;
37851;SDS011;23691;52.486;4.650;2023-05-10T05:10:59;18.25;;;10.52;;
37851;SDS011;23691;52.486;4.650;2023-05-10T05:13:25;18.63;;;10.23;;
37851;SDS011;23691;52.486;4.650;2023-05-10T05:15:50;19.60;;;11.43;;
37851;SDS011;23691;52.486;4.650;2023-05-10T05:18:16;18.35;;;11.00;;
37851;SDS011;23691;52.486;4.650;2023-05-10T05:20:41;20.27;;;11.20;;
37851;SDS011;23691;52.486;4.650;2023-05-10T05:23:06;17.80;;;11.00;;
37851;SDS011;23691;52.486;4.650;2023-05-10T05:25:32;16.98;;;11.05;;
37851;SDS011;23691;52.486;4.650;2023-05-10T05:27:57;19.17;;;10.80;;
37851;SDS011;23691;52.486;4.650;2023-05-10T05:30:25;18.20;;;10.63;;
37851;SDS011;23691;52.486;4.650;2023-05-10T05:32:50;19.75;;;10.90;;
37851;SDS011;23691;52.486;4.650;2023-05-10T05:35:16;18.33;;;10.88;;
37851;SDS011;23691;52.486;4.650;2023-05-10T05:37:41;19.02;;;10.85;;
37851;SDS011;23691;52.486;4.650;2023-05-10T05:40:07;19.10;;;10.57;;
37851;SDS011;23691;52.486;4.650;2023-05-10T05:42:33;17.98;;;10.02;;
37851;SDS011;23691;52.486;4.650;2023-05-10T05:44:58;19.90;;;10.35;;
37851;SDS011;23691;52.486;4.650;2023-05-10T05:47:24;19.88;;;10.23;;
37851;SDS011;23691;52.486;4.650;2023-05-10T05:49:49;18.50;;;10.95;;
37851;SDS011;23691;52.486;4.650;2023-05-10T05:52:14;18.00;;;10.23;;
37851;SDS011;23691;52.486;4.650;2023-05-10T05:54:40;19.27;;;9.80;;
37851;SDS011;23691;52.486;4.650;2023-05-10T05:57:06;17.15;;;10.10;;
37851;SDS011;23691;52.486;4.650;2023-05-10T05:59:32;16.45;;;10.15;;
37851;SDS011;23691;52.486;4.650;2023-05-10T06:01:57;18.33;;;10.13;;
37851;SDS011;23691;52.486;4.650;2023-05-10T06:04:23;16.05;;;10.00;;
37851;SDS011;23691;52.486;4.650;2023-05-10T06:06:49;19.90;;;10.48;;
37851;SDS011;23691;52.486;4.650;2023-05-10T06:09:14;17.73;;;9.98;;
37851;SDS011;23691;52.486;4.650;2023-05-10T06:11:39;20.30;;;10.98;;
37851;SDS011;23691;52.486;4.650;2023-05-10T06:14:05;20.33;;;11.85;;
37851;SDS011;23691;52.486;4.650;2023-05-10T06:16:32;21.23;;;11.55;;
37851;SDS011;23691;52.486;4.650;2023-05-10T06:18:57;19.60;;;12.13;;
37851;SDS011;23691;52.486;4.650;2023-05-10T06:21:23;22.55;;;12.82;;
37851;SDS011;23691;52.486;4.650;2023-05-10T06:23:48;19.77;;;12.07;;
37851;SDS011;23691;52.486;4.650;2023-05-10T06:26:13;21.98;;;12.25;;
37851;SDS011;23691;52.486;4.650;2023-05-10T06:28:39;24.60;;;13.00;;
37851;SDS011;23691;52.486;4.650;2023-05-10T06:31:05;25.65;;;13.43;;
37851;SDS011;23691;52.486;4.650;2023-05-10T06:33:30;24.15;;;13.43;;
37851;SDS011;23691;52.486;4.650;2023-05-10T06:35:56;20.23;;;12.32;;
37851;SDS011;23691;52.486;4.650;2023-05-10T06:38:22;23.25;;;12.27;;
37851;SDS011;23691;52.486;4.650;2023-05-10T06:40:47;23.42;;;11.63;;
37851;SDS011;23691;52.486;4.650;2023-05-10T06:43:13;17.52;;;10.25;;
37851;SDS011;23691;52.486;4.650;2023-05-10T06:45:38;17.33;;;10.27;;
37851;SDS011;23691;52.486;4.650;2023-05-10T06:48:03;19.70;;;10.15;;
37851;SDS011;23691;52.486;4.650;2023-05-10T06:50:29;20.13;;;11.30;;
37851;SDS011;23691;52.486;4.650;2023-05-10T06:52:54;20.65;;;12.35;;
37851;SDS011;23691;52.486;4.650;2023-05-10T06:55:20;18.25;;;10.80;;
37851;SDS011;23691;52.486;4.650;2023-05-10T06:57:46;19.05;;;10.25;;
37851;SDS011;23691;52.486;4.650;2023-05-10T07:00:12;16.98;;;9.75;;
37851;SDS011;23691;52.486;4.650;2023-05-10T07:02:38;18.23;;;9.38;;
37851;SDS011;23691;52.486;4.650;2023-05-10T07:05:04;16.52;;;8.80;;
37851;SDS011;23691;52.486;4.650;2023-05-10T07:07:29;15.15;;;8.40;;
37851;SDS011;23691;52.486;4.650;2023-05-10T07:09:55;15.85;;;8.73;;
37851;SDS011;23691;52.486;4.650;2023-05-10T07:12:21;14.20;;;8.00;;
37851;SDS011;23691;52.486;4.650;2023-05-10T07:14:46;13.50;;;8.00;;
37851;SDS011;23691;52.486;4.650;2023-05-10T07:17:12;14.63;;;7.20;;
37851;SDS011;23691;52.486;4.650;2023-05-10T07:19:37;13.15;;;7.00;;
37851;SDS011;23691;52.486;4.650;2023-05-10T07:22:02;14.27;;;6.53;;
37851;SDS011;23691;52.486;4.650;2023-05-10T07:24:28;12.68;;;6.15;;
37851;SDS011;23691;52.486;4.650;2023-05-10T07:26:53;11.70;;;5.97;;
37851;SDS011;23691;52.486;4.650;2023-05-10T07:29:18;11.68;;;6.10;;
37851;SDS011;23691;52.486;4.650;2023-05-10T07:31:44;12.10;;;6.35;;
37851;SDS011;23691;52.486;4.650;2023-05-10T07:34:09;13.07;;;6.32;;
37851;SDS011;23691;52.486;4.650;2023-05-10T07:36:35;10.18;;;5.55;;
37851;SDS011;23691;52.486;4.650;2023-05-10T07:39:00;12.80;;;6.40;;
37851;SDS011;23691;52.486;4.650;2023-05-10T07:41:26;10.63;;;5.95;;
37851;SDS011;23691;52.486;4.650;2023-05-10T07:43:52;10.80;;;5.60;;
37851;SDS011;23691;52.486;4.650;2023-05-10T07:46:17;10.10;;;5.68;;
37851;SDS011;23691;52.486;4.650;2023-05-10T07:48:44;10.98;;;5.72;;
37851;SDS011;23691;52.486;4.650;2023-05-10T07:51:09;10.57;;;5.80;;
37851;SDS011;23691;52.486;4.650;2023-05-10T07:53:35;11.25;;;6.10;;
37851;SDS011;23691;52.486;4.650;2023-05-10T07:56:19;12.15;;;6.57;;
37851;SDS011;23691;52.486;4.650;2023-05-10T07:58:45;14.68;;;7.65;;
37851;SDS011;23691;52.486;4.650;2023-05-10T08:01:10;12.27;;;6.18;;
37851;SDS011;23691;52.486;4.650;2023-05-10T08:03:35;13.38;;;7.45;;
37851;SDS011;23691;52.486;4.650;2023-05-10T08:06:00;14.68;;;6.70;;
37851;SDS011;23691;52.486;4.650;2023-05-10T08:08:26;12.93;;;6.22;;
37851;SDS011;23691;52.486;4.650;2023-05-10T08:10:51;13.88;;;5.90;;
37851;SDS011;23691;52.486;4.650;2023-05-10T08:13:17;11.55;;;5.65;;
37851;SDS011;23691;52.486;4.650;2023-05-10T08:15:42;13.25;;;5.60;;
37851;SDS011;23691;52.486;4.650;2023-05-10T08:18:07;14.02;;;5.90;;
37851;SDS011;23691;52.486;4.650;2023-05-10T08:20:32;15.27;;;6.05;;
37851;SDS011;23691;52.486;4.650;2023-05-10T08:22:58;12.07;;;5.80;;
37851;SDS011;23691;52.486;4.650;2023-05-10T08:25:23;12.63;;;6.07;;
37851;SDS011;23691;52.486;4.650;2023-05-10T08:27:49;15.48;;;6.30;;
37851;SDS011;23691;52.486;4.650;2023-05-10T08:30:14;13.50;;;6.35;;
37851;SDS011;23691;52.486;4.650;2023-05-10T08:32:40;15.13;;;6.03;;
37851;SDS011;23691;52.486;4.650;2023-05-10T08:35:05;14.48;;;5.90;;
37851;SDS011;23691;52.486;4.650;2023-05-10T08:37:31;14.82;;;5.90;;
37851;SDS011;23691;52.486;4.650;2023-05-10T08:39:57;12.70;;;5.32;;
37851;SDS011;23691;52.486;4.650;2023-05-10T08:42:22;12.23;;;6.05;;
37851;SDS011;23691;52.486;4.650;2023-05-10T08:44:50;15.63;;;5.70;;
37851;SDS011;23691;52.486;4.650;2023-05-10T08:47:18;11.73;;;5.40;;
37851;SDS011;23691;52.486;4.650;2023-05-10T08:49:44;13.55;;;5.95;;
37851;SDS011;23691;52.486;4.650;2023-05-10T08:52:13;12.57;;;6.03;;
37851;SDS011;23691;52.486;4.650;2023-05-10T08:54:41;12.60;;;6.15;;
37851;SDS011;23691;52.486;4.650;2023-05-10T08:57:06;15.50;;;6.20;;
37851;SDS011;23691;52.486;4.650;2023-05-10T08:59:32;15.50;;;5.63;;
37851;SDS011;23691;52.486;4.650;2023-05-10T09:01:58;13.82;;;5.75;;
37851;SDS011;23691;52.486;4.650;2023-05-10T09:04:24;14.52;;;6.40;;
37851;SDS011;23691;52.486;4.650;2023-05-10T09:06:50;12.05;;;5.95;;
37851;SDS011;23691;52.486;4.650;2023-05-10T09:09:16;14.38;;;6.47;;
37851;SDS011;23691;52.486;4.650;2023-05-10T09:11:43;15.87;;;7.53;;
37851;SDS011;23691;52.486;4.650;2023-05-10T09:14:09;15.23;;;6.90;;
37851;SDS011;23691;52.486;4.650;2023-05-10T09:16:35;16.45;;;7.22;;
37851;SDS011;23691;52.486;4.650;2023-05-10T09:19:00;15.23;;;7.25;;
37851;SDS011;23691;52.486;4.650;2023-05-10T09:21:25;16.58;;;7.55;;
37851;SDS011;23691;52.486;4.650;2023-05-10T09:23:51;14.73;;;7.32;;
37851;SDS011;23691;52.486;4.650;2023-05-10T09:26:21;15.35;;;7.75;;
37851;SDS011;23691;52.486;4.650;2023-05-10T09:31:17;16.85;;;8.50;;
37851;SDS011;23691;52.486;4.650;2023-05-10T09:33:43;16.05;;;8.55;;
37851;SDS011;23691;52.486;4.650;2023-05-10T09:36:12;18.35;;;9.50;;
37851;SDS011;23691;52.486;4.650;2023-05-10T09:41:17;22.30;;;10.63;;
37851;SDS011;23691;52.486;4.650;2023-05-10T09:43:43;20.52;;;10.35;;
37851;SDS011;23691;52.486;4.650;2023-05-10T09:46:12;20.35;;;10.25;;
37851;SDS011;23691;52.486;4.650;2023-05-10T09:48:47;19.00;;;9.88;;
37851;SDS011;23691;52.486;4.650;2023-05-10T09:51:24;18.77;;;9.73;;
37851;SDS011;23691;52.486;4.650;2023-05-10T09:56:37;21.27;;;11.10;;
37851;SDS011;23691;52.486;4.650;2023-05-10T09:59:05;20.98;;;10.80;;
37851;SDS011;23691;52.486;4.650;2023-05-10T10:01:32;21.15;;;10.80;;
37851;SDS011;23691;52.486;4.650;2023-05-10T10:03:58;19.02;;;10.40;;
37851;SDS011;23691;52.486;4.650;2023-05-10T10:06:24;19.30;;;10.07;;
37851;SDS011;23691;52.486;4.650;2023-05-10T10:08:50;18.17;;;9.40;;
37851;SDS011;23691;52.486;4.650;2023-05-10T10:11:15;17.90;;;9.18;;
37851;SDS011;23691;52.486;4.650;2023-05-10T10:13:41;17.45;;;8.45;;
37851;SDS011;23691;52.486;4.650;2023-05-10T10:16:07;17.23;;;8.95;;
37851;SDS011;23691;52.486;4.650;2023-05-10T10:18:33;18.80;;;9.80;;
37851;SDS011;23691;52.486;4.650;2023-05-10T10:21:03;20.75;;;10.10;;
37851;SDS011;23691;52.486;4.650;2023-05-10T10:23:34;16.55;;;8.70;;
37851;SDS011;23691;52.486;4.650;2023-05-10T10:26:00;13.73;;;7.22;;
37851;SDS011;23691;52.486;4.650;2023-05-10T10:28:32;14.65;;;8.02;;
37851;SDS011;23691;52.486;4.650;2023-05-10T10:34:00;14.68;;;7.75;;
37851;SDS011;23691;52.486;4.650;2023-05-10T10:36:30;16.00;;;8.30;;
37851;SDS011;23691;52.486;4.650;2023-05-10T10:38:57;15.73;;;8.15;;
37851;SDS011;23691;52.486;4.650;2023-05-10T10:41:28;15.18;;;7.93;;
37851;SDS011;23691;52.486;4.650;2023-05-10T10:57:41;17.00;;;8.23;;
37851;SDS011;23691;52.486;4.650;2023-05-10T11:08:02;14.10;;;7.13;;
37851;SDS011;23691;52.486;4.650;2023-05-10T11:10:32;12.65;;;6.70;;
37851;SDS011;23691;52.486;4.650;2023-05-10T11:15:36;12.48;;;6.40;;
37851;SDS011;23691;52.486;4.650;2023-05-10T11:18:19;12.27;;;6.28;;
37851;SDS011;23691;52.486;4.650;2023-05-10T11:20:51;13.48;;;6.93;;
37851;SDS011;23691;52.486;4.650;2023-05-10T11:23:29;13.70;;;7.53;;
37851;SDS011;23691;52.486;4.650;2023-05-10T11:26:12;15.40;;;7.30;;
37851;SDS011;23691;52.486;4.650;2023-05-10T11:28:45;14.10;;;6.95;;
37851;SDS011;23691;52.486;4.650;2023-05-10T11:31:15;12.45;;;6.60;;
37851;SDS011;23691;52.486;4.650;2023-05-10T11:33:45;17.75;;;7.70;;
37851;SDS011;23691;52.486;4.650;2023-05-10T11:36:15;14.43;;;6.85;;
37851;SDS011;23691;52.486;4.650;2023-05-10T11:38:42;12.23;;;5.65;;
37851;SDS011;23691;52.486;4.650;2023-05-10T11:41:08;12.43;;;6.63;;
37851;SDS011;23691;52.486;4.650;2023-05-10T11:43:35;14.35;;;6.85;;
37851;SDS011;23691;52.486;4.650;2023-05-10T11:48:29;13.10;;;6.47;;
37851;SDS011;23691;52.486;4.650;2023-05-10T11:50:55;13.57;;;6.40;;
37851;SDS011;23691;52.486;4.650;2023-05-10T11:53:22;17.23;;;7.57;;
37851;SDS011;23691;52.486;4.650;2023-05-10T11:55:47;15.80;;;6.95;;
37851;SDS011;23691;52.486;4.650;2023-05-10T11:58:13;14.63;;;5.90;;
37851;SDS011;23691;52.486;4.650;2023-05-10T12:00:38;15.23;;;6.15;;
37851;SDS011;23691;52.486;4.650;2023-05-10T12:03:04;10.75;;;5.05;;
37851;SDS011;23691;52.486;4.650;2023-05-10T12:05:33;12.07;;;5.75;;
37851;SDS011;23691;52.486;4.650;2023-05-10T12:08:16;10.98;;;5.80;;
37851;SDS011;23691;52.486;4.650;2023-05-10T12:10:46;13.27;;;5.97;;
37851;SDS011;23691;52.486;4.650;2023-05-10T12:13:11;12.18;;;5.10;;
37851;SDS011;23691;52.486;4.650;2023-05-10T12:15:38;12.18;;;5.45;;
37851;SDS011;23691;52.486;4.650;2023-05-10T12:18:04;11.02;;;5.82;;
37851;SDS011;23691;52.486;4.650;2023-05-10T12:20:30;12.38;;;5.90;;
37851;SDS011;23691;52.486;4.650;2023-05-10T12:22:56;11.20;;;5.68;;
37851;SDS011;23691;52.486;4.650;2023-05-10T12:25:24;12.38;;;5.72;;
37851;SDS011;23691;52.486;4.650;2023-05-10T12:27:56;12.02;;;6.00;;
37851;SDS011;23691;52.486;4.650;2023-05-10T12:30:23;14.48;;;6.10;;
37851;SDS011;23691;52.486;4.650;2023-05-10T12:32:50;14.95;;;6.55;;
37851;SDS011;23691;52.486;4.650;2023-05-10T12:35:15;12.35;;;6.78;;
37851;SDS011;23691;52.486;4.650;2023-05-10T12:37:44;13.25;;;6.57;;
37851;SDS011;23691;52.486;4.650;2023-05-10T12:40:10;13.32;;;6.85;;
37851;SDS011;23691;52.486;4.650;2023-05-10T12:42:36;13.20;;;7.18;;
37851;SDS011;23691;52.486;4.650;2023-05-10T12:45:03;15.18;;;7.47;;
37851;SDS011;23691;52.486;4.650;2023-05-10T12:47:30;16.50;;;8.10;;
37851;SDS011;23691;52.486;4.650;2023-05-10T12:49:56;13.18;;;7.20;;
37851;SDS011;23691;52.486;4.650;2023-05-10T12:52:22;12.50;;;6.43;;
37851;SDS011;23691;52.486;4.650;2023-05-10T12:54:47;14.02;;;6.70;;
37851;SDS011;23691;52.486;4.650;2023-05-10T12:57:13;16.70;;;8.18;;
37851;SDS011;23691;52.486;4.650;2023-05-10T12:59:38;12.73;;;6.80;;
37851;SDS011;23691;52.486;4.650;2023-05-10T13:02:04;14.00;;;6.00;;
37851;SDS011;23691;52.486;4.650;2023-05-10T13:04:30;13.98;;;6.88;;
37851;SDS011;23691;52.486;4.650;2023-05-10T13:06:55;15.95;;;7.40;;
37851;SDS011;23691;52.486;4.650;2023-05-10T13:09:23;12.52;;;6.35;;
37851;SDS011;23691;52.486;4.650;2023-05-10T13:11:50;13.82;;;6.97;;
37851;SDS011;23691;52.486;4.650;2023-05-10T13:14:15;13.50;;;6.93;;
37851;SDS011;23691;52.486;4.650;2023-05-10T13:16:40;13.10;;;6.90;;
37851;SDS011;23691;52.486;4.650;2023-05-10T13:19:06;12.43;;;6.63;;
37851;SDS011;23691;52.486;4.650;2023-05-10T13:21:31;11.68;;;5.40;;
37851;SDS011;23691;52.486;4.650;2023-05-10T13:23:57;11.05;;;5.18;;
37851;SDS011;23691;52.486;4.650;2023-05-10T13:26:23;10.73;;;4.88;;
37851;SDS011;23691;52.486;4.650;2023-05-10T13:28:48;10.10;;;4.35;;
37851;SDS011;23691;52.486;4.650;2023-05-10T13:31:14;11.93;;;5.57;;
37851;SDS011;23691;52.486;4.650;2023-05-10T13:33:39;16.98;;;7.53;;
37851;SDS011;23691;52.486;4.650;2023-05-10T13:36:05;14.20;;;6.60;;
37851;SDS011;23691;52.486;4.650;2023-05-10T13:38:31;14.32;;;6.47;;
37851;SDS011;23691;52.486;4.650;2023-05-10T13:40:56;13.85;;;6.55;;
37851;SDS011;23691;52.486;4.650;2023-05-10T13:43:22;12.18;;;5.72;;
37851;SDS011;23691;52.486;4.650;2023-05-10T13:45:47;13.73;;;6.10;;
37851;SDS011;23691;52.486;4.650;2023-05-10T13:48:13;10.80;;;5.22;;
37851;SDS011;23691;52.486;4.650;2023-05-10T13:50:38;12.05;;;5.53;;
37851;SDS011;23691;52.486;4.650;2023-05-10T13:53:03;12.20;;;5.88;;
37851;SDS011;23691;52.486;4.650;2023-05-10T13:55:29;10.77;;;4.97;;
37851;SDS011;23691;52.486;4.650;2023-05-10T13:57:54;15.25;;;4.53;;
37851;SDS011;23691;52.486;4.650;2023-05-10T14:00:19;11.95;;;5.13;;
37851;SDS011;23691;52.486;4.650;2023-05-10T14:02:45;10.63;;;4.80;;
37851;SDS011;23691;52.486;4.650;2023-05-10T14:05:10;13.32;;;5.47;;
37851;SDS011;23691;52.486;4.650;2023-05-10T14:07:35;10.02;;;4.72;;
37851;SDS011;23691;52.486;4.650;2023-05-10T14:10:01;10.48;;;4.18;;
37851;SDS011;23691;52.486;4.650;2023-05-10T14:12:26;11.23;;;4.43;;
37851;SDS011;23691;52.486;4.650;2023-05-10T14:14:52;11.18;;;4.00;;
37851;SDS011;23691;52.486;4.650;2023-05-10T14:17:18;11.50;;;4.40;;
37851;SDS011;23691;52.486;4.650;2023-05-10T14:19:43;9.77;;;4.15;;
37851;SDS011;23691;52.486;4.650;2023-05-10T14:22:08;12.10;;;4.20;;
37851;SDS011;23691;52.486;4.650;2023-05-10T14:24:34;9.07;;;3.22;;
37851;SDS011;23691;52.486;4.650;2023-05-10T14:26:59;9.32;;;4.60;;
37851;SDS011;23691;52.486;4.650;2023-05-10T14:29:25;9.93;;;4.20;;
37851;SDS011;23691;52.486;4.650;2023-05-10T14:31:50;11.98;;;5.95;;
37851;SDS011;23691;52.486;4.650;2023-05-10T14:34:15;12.85;;;5.90;;
37851;SDS011;23691;52.486;4.650;2023-05-10T14:36:41;11.95;;;6.18;;
37851;SDS011;23691;52.486;4.650;2023-05-10T14:39:06;14.52;;;6.40;;
37851;SDS011;23691;52.486;4.650;2023-05-10T14:41:33;17.30;;;8.93;;
37851;SDS011;23691;52.486;4.650;2023-05-10T14:43:58;15.35;;;7.72;;
37851;SDS011;23691;52.486;4.650;2023-05-10T14:46:23;17.20;;;7.70;;
37851;SDS011;23691;52.486;4.650;2023-05-10T14:48:49;17.98;;;9.15;;
37851;SDS011;23691;52.486;4.650;2023-05-10T14:51:14;20.95;;;9.75;;
37851;SDS011;23691;52.486;4.650;2023-05-10T14:53:39;17.80;;;8.40;;
37851;SDS011;23691;52.486;4.650;2023-05-10T14:56:05;18.75;;;9.07;;
37851;SDS011;23691;52.486;4.650;2023-05-10T14:58:30;19.65;;;8.95;;
37851;SDS011;23691;52.486;4.650;2023-05-10T15:00:56;19.55;;;8.10;;
37851;SDS011;23691;52.486;4.650;2023-05-10T15:03:22;14.05;;;6.47;;
37851;SDS011;23691;52.486;4.650;2023-05-10T15:05:47;11.93;;;5.88;;
37851;SDS011;23691;52.486;4.650;2023-05-10T15:08:12;10.88;;;4.90;;
37851;SDS011;23691;52.486;4.650;2023-05-10T15:10:38;10.40;;;4.38;;
37851;SDS011;23691;52.486;4.650;2023-05-10T15:13:04;10.52;;;4.38;;
37851;SDS011;23691;52.486;4.650;2023-05-10T15:15:29;9.27;;;4.38;;
37851;SDS011;23691;52.486;4.650;2023-05-10T15:17:54;9.65;;;4.25;;
37851;SDS011;23691;52.486;4.650;2023-05-10T15:20:20;10.27;;;4.57;;
37851;SDS011;23691;52.486;4.650;2023-05-10T15:22:45;12.82;;;5.70;;